Time;durP1;ratioP1;P1;durP2;ratioP2;P2;SDS_P1;SDS_P2;PMS_P1;PMS_P2;Temp;Humidity;BMP_temperature;BMP_pressure;BME280_temperature;BME280_humidity;BME280_pressure;Samples;Min_cycle;Max_cycle;Signal;HPM_P1;HPM_P2
2021/10/18 00:00:19;;;;;;;37.20;25.30;;;;;;;5.03;89.68;97986.41;116489;1182;71529;-69
2021/10/18 00:03:00;;;;;;;45.00;28.80;;;;;;;5.09;89.76;97986.34;116494;1182;67637;-74
2021/10/18 00:05:33;;;;;;;54.70;31.90;;;;;;;5.11;89.89;97991.12;116681;1180;68443;-70
2021/10/18 00:08:02;;;;;;;50.60;29.90;;;;;;;5.10;89.78;97990.10;116592;1180;60372;-74
2021/10/18 00:10:33;;;;;;;;;;;;;;;5.06;89.60;97989.48;116524;1182;60381;-74
2021/10/18 00:13:23;;;;;;;45.10;27.70;;;;;;;5.03;89.61;97987.50;116521;1182;72147;-87
2021/10/18 00:15:53;;;;;;;38.00;24.40;;;;;;;5.03;89.48;97982.56;116365;1182;68417;-87
2021/10/18 00:18:23;;;;;;;37.40;26.00;;;;;;;5.05;89.49;97981.40;116471;1181;68446;-71
2021/10/18 00:20:54;;;;;;;387.40;39.30;;;;;;;5.06;89.38;97987.13;116477;1182;60355;-73
2021/10/18 00:23:24;;;;;;;52.30;30.90;;;;;;;5.04;89.32;97986.72;116550;1181;60357;-72
2021/10/18 00:25:55;;;;;;;46.80;28.80;;;;;;;4.98;89.30;97983.80;116497;1182;71407;-68
2021/10/18 00:28:25;;;;;;;43.20;28.10;;;;;;;4.96;90.10;97980.74;116429;1182;68236;-78
2021/10/18 00:30:56;;;;;;;40.20;26.10;;;;;;;4.96;89.79;97980.04;116615;1182;68710;-71
2021/10/18 00:33:26;;;;;;;37.50;25.30;;;;;;;4.96;90.61;97979.48;116518;1182;60360;-79
2021/10/18 00:35:57;;;;;;;36.00;23.90;;;;;;;4.95;90.91;97980.98;116570;1182;60341;-77
2021/10/18 00:38:27;;;;;;;34.90;23.90;;;;;;;4.93;90.60;97976.58;116448;1183;71204;-70
2021/10/18 00:40:57;;;;;;;51.00;30.80;;;;;;;4.92;90.84;97977.21;116542;1181;67647;-86
2021/10/18 00:43:27;;;;;;;48.00;28.90;;;;;;;4.88;90.24;97977.77;116469;1182;68674;-69
2021/10/18 00:45:57;;;;;;;39.10;26.40;;;;;;;4.85;89.53;97972.80;116544;1180;60394;-75
2021/10/18 00:48:27;;;;;;;35.40;25.20;;;;;;;4.80;89.38;97972.64;116461;1182;60356;-85
2021/10/18 00:50:57;;;;;;;30.10;20.20;;;;;;;4.78;89.64;97971.22;116478;1176;71324;-74
2021/10/18 00:53:28;;;;;;;29.40;19.60;;;;;;;4.76;89.50;97969.66;116503;1181;66661;-87
2021/10/18 00:55:58;;;;;;;35.50;22.90;;;;;;;4.72;89.44;97966.75;116346;1182;69149;-72
2021/10/18 00:58:28;;;;;;;;;;;;;;;4.69;89.17;97967.61;116588;1182;60351;-71
2021/10/18 01:00:59;;;;;;;122.90;23.00;;;;;;;4.63;88.90;97967.58;116554;1182;60322;-79
2021/10/18 01:03:29;;;;;;;94.20;24.90;;;;;;;4.56;89.21;97960.83;116565;1182;72206;-76
2021/10/18 01:05:59;;;;;;;137.90;23.00;;;;;;;4.50;89.46;97959.79;116325;1179;68431;-81
2021/10/18 01:08:29;;;;;;;52.90;22.10;;;;;;;4.44;89.34;97967.20;116464;1182;69308;-70
2021/10/18 01:11:02;;;;;;;95.80;23.50;;;;;;;4.39;89.51;97968.60;116506;1182;60399;-84
2021/10/18 01:13:32;;;;;;;90.30;22.50;;;;;;;4.35;89.33;97967.89;116444;1182;60415;-69
2021/10/18 01:16:02;;;;;;;104.30;22.00;;;;;;;4.29;89.03;97962.53;116500;1181;71373;-70
2021/10/18 01:18:33;;;;;;;;;;;;;;;4.23;89.38;97959.53;116424;1182;68395;-68
2021/10/18 01:21:05;;;;;;;54.50;18.10;;;;;;;4.17;90.32;97966.48;116659;1182;68562;-77
2021/10/18 01:23:35;;;;;;;;;;;;;;;4.09;90.09;97965.73;116467;1182;60767;-74
2021/10/18 01:26:07;;;;;;;183.90;20.40;;;;;;;4.04;90.68;97965.40;116478;1182;60339;-69
2021/10/18 01:28:38;;;;;;;91.00;19.20;;;;;;;4.01;90.39;97962.56;116414;1182;71922;-71
2021/10/18 01:31:08;;;;;;;127.70;21.10;;;;;;;3.98;91.20;97956.91;116522;1182;67879;-69
2021/10/18 01:33:39;;;;;;;41.70;17.40;;;;;;;3.93;90.84;97955.23;116487;1182;68520;-73
2021/10/18 01:36:09;;;;;;;45.50;18.00;;;;;;;3.90;91.19;97956.86;116545;1182;60337;-80
2021/10/18 01:38:39;;;;;;;98.00;18.30;;;;;;;3.87;91.68;97955.67;116473;1182;60370;-74
2021/10/18 01:41:09;;;;;;;148.70;18.30;;;;;;;3.84;91.81;97959.19;116518;1181;71366;-70
2021/10/18 01:43:39;;;;;;;240.90;24.60;;;;;;;3.78;91.70;97955.32;116485;1181;68332;-81
2021/10/18 01:46:09;;;;;;;245.60;24.10;;;;;;;3.74;91.15;97962.95;116497;1182;69114;-70
2021/10/18 01:48:39;;;;;;;104.10;20.00;;;;;;;3.69;90.78;97961.45;116363;1182;60419;-71
2021/10/18 01:51:09;;;;;;;72.70;19.10;;;;;;;3.64;91.18;97959.46;116349;1182;60334;-73
2021/10/18 01:53:39;;;;;;;89.10;19.50;;;;;;;3.60;91.49;97957.72;116385;1182;71367;-72
2021/10/18 01:56:09;;;;;;;93.50;20.10;;;;;;;3.55;91.56;97959.39;116385;1182;67605;-84
2021/10/18 01:58:39;;;;;;;56.90;16.30;;;;;;;3.48;91.07;97959.52;116506;1182;68429;-84
2021/10/18 02:01:09;;;;;;;94.60;19.60;;;;;;;3.44;91.38;97961.52;116379;1182;60380;-82
2021/10/18 02:03:39;;;;;;;74.70;21.50;;;;;;;3.40;91.18;97961.08;116490;1181;60352;-73
2021/10/18 02:06:10;;;;;;;120.10;23.50;;;;;;;3.37;91.04;97962.07;116530;1182;72191;-72
2021/10/18 02:08:40;;;;;;;82.30;22.70;;;;;;;3.33;90.78;97960.48;116508;1182;67630;-84
2021/10/18 02:11:12;;;;;;;252.20;28.20;;;;;;;3.29;91.07;97963.13;116443;1182;68294;-72
2021/10/18 02:13:42;;;;;;;79.60;21.90;;;;;;;3.26;91.38;97963.73;116226;1184;60364;-69
2021/10/18 02:16:16;;;;;;;206.60;26.40;;;;;;;3.23;91.18;97963.38;116540;1182;60283;-75
2021/10/18 02:18:47;;;;;;;33.80;17.90;;;;;;;3.20;91.26;97965.63;116493;1182;71396;-82
2021/10/18 02:21:18;;;;;;;41.10;17.00;;;;;;;3.18;92.12;97970.77;116345;1182;68315;-72
2021/10/18 02:23:49;;;;;;;53.90;19.70;;;;;;;3.15;92.31;97971.52;116463;1181;68427;-83
2021/10/18 02:26:18;;;;;;;68.20;21.60;;;;;;;3.14;92.46;97972.45;116274;1182;60345;-69
2021/10/18 02:28:48;;;;;;;26.40;16.10;;;;;;;3.13;92.43;97976.05;116512;1181;60310;-70
2021/10/18 02:31:21;;;;;;;50.20;20.60;;;;;;;3.11;92.68;97975.88;116477;1182;72159;-79
2021/10/18 02:33:50;;;;;;;56.90;19.40;;;;;;;3.09;92.48;97976.10;116419;1182;68211;-79
2021/10/18 02:36:20;;;;;;;48.20;17.30;;;;;;;3.08;92.55;97977.98;116299;1182;68448;-68
2021/10/18 02:38:49;;;;;;;34.20;19.70;;;;;;;3.08;92.57;97978.67;116345;1182;61814;-75
2021/10/18 02:41:19;;;;;;;42.10;23.00;;;;;;;3.09;92.35;97975.31;116420;1182;60380;-71
2021/10/18 02:43:49;;;;;;;41.50;19.70;;;;;;;3.10;92.52;97979.23;116456;1182;71211;-73
2021/10/18 02:46:19;;;;;;;54.60;21.60;;;;;;;3.11;92.51;97976.90;116368;1182;67785;-85
2021/10/18 02:48:48;;;;;;;142.50;21.30;;;;;;;3.14;92.31;97981.52;116140;1185;69245;-77
2021/10/18 02:51:18;;;;;;;54.30;17.70;;;;;;;3.14;92.07;97985.27;116335;1182;60388;-70
2021/10/18 02:53:48;;;;;;;66.20;21.20;;;;;;;3.14;92.13;97984.50;116286;1181;60330;-77
2021/10/18 02:56:17;;;;;;;54.70;22.20;;;;;;;3.16;92.22;97984.66;116200;1182;72249;-73
2021/10/18 02:58:47;;;;;;;70.60;21.70;;;;;;;3.17;92.46;97989.91;116440;1182;68686;-75
2021/10/18 03:01:17;;;;;;;86.00;26.20;;;;;;;3.18;92.33;97983.91;116406;1182;68514;-72
2021/10/18 03:03:47;;;;;;;37.70;15.70;;;;;;;3.20;92.20;97984.06;116468;1182;60300;-73
2021/10/18 03:06:18;;;;;;;32.00;16.50;;;;;;;3.20;92.25;97985.95;116501;1181;60365;-83
2021/10/18 03:08:48;;;;;;;28.00;16.20;;;;;;;3.19;92.28;97987.42;116431;1182;70231;-70
2021/10/18 03:11:17;;;;;;;31.20;17.60;;;;;;;3.22;92.48;97990.58;116271;1182;68478;-72
2021/10/18 03:13:48;;;;;;;36.00;18.60;;;;;;;3.25;92.73;97990.71;116273;1182;68303;-75
2021/10/18 03:16:18;;;;;;;37.80;16.90;;;;;;;3.29;92.43;97993.31;116408;1182;60388;-79
2021/10/18 03:18:48;;;;;;;33.60;17.30;;;;;;;3.31;92.56;97988.40;116397;1182;60504;-69
2021/10/18 03:21:17;;;;;;;31.90;15.80;;;;;;;3.35;92.36;97989.67;116454;1184;72188;-69
2021/10/18 03:23:48;;;;;;;28.00;15.70;;;;;;;3.35;92.58;97990.07;116423;1181;67646;-85
2021/10/18 03:26:19;;;;;;;30.40;17.70;;;;;;;3.33;92.35;97992.88;116248;1182;68472;-76
2021/10/18 03:28:48;;;;;;;26.80;16.20;;;;;;;3.33;92.32;97989.90;116382;1177;60735;-81
2021/10/18 03:31:18;;;;;;;31.80;15.60;;;;;;;3.36;92.08;97992.95;116442;1182;60370;-80
2021/10/18 03:33:49;;;;;;;34.20;15.40;;;;;;;3.36;92.16;97991.16;116458;1182;71357;-72
2021/10/18 03:36:18;;;;;;;54.30;17.20;;;;;;;3.38;92.25;97995.86;116267;1183;68772;-69
2021/10/18 03:38:49;;;;;;;56.60;18.00;;;;;;;3.38;92.37;97992.66;116434;1182;68274;-82
2021/10/18 03:41:19;;;;;;;58.20;18.10;;;;;;;3.39;92.33;97993.22;116471;1182;60775;-70
2021/10/18 03:43:50;;;;;;;67.60;18.00;;;;;;;3.39;92.20;97995.80;116537;1182;60276;-80
2021/10/18 03:46:19;;;;;;;69.20;17.40;;;;;;;3.36;92.15;98003.69;116280;1182;72198;-76
2021/10/18 03:48:49;;;;;;;51.10;17.30;;;;;;;3.35;92.27;98003.91;116453;1182;69650;-77
2021/10/18 03:51:18;;;;;;;48.90;15.70;;;;;;;3.34;92.03;98003.83;116410;1182;69050;-82
2021/10/18 03:53:48;;;;;;;40.40;15.10;;;;;;;3.37;92.29;98005.56;116425;1182;60334;-81
2021/10/18 03:56:17;;;;;;;35.70;15.00;;;;;;;3.38;92.37;98007.30;116439;1182;60345;-70
2021/10/18 03:58:46;;;;;;;24.10;13.00;;;;;;;3.36;91.96;98007.91;116451;1182;72848;-72
2021/10/18 04:01:15;;;;;;;26.10;17.00;;;;;;;3.36;92.20;98010.71;116421;1182;68244;-79
2021/10/18 04:03:45;;;;;;;33.20;19.40;;;;;;;3.39;92.27;98013.55;116255;1183;69318;-73
2021/10/18 04:06:14;;;;;;;53.30;18.10;;;;;;;3.41;92.36;98011.86;116475;1181;60360;-78
2021/10/18 04:08:43;;;;;;;26.60;15.60;;;;;;;3.41;92.39;98010.45;116497;1182;60353;-80
2021/10/18 04:11:12;;;;;;;33.30;18.30;;;;;;;3.41;92.43;98006.69;116588;1182;71372;-72
2021/10/18 04:13:43;;;;;;;125.00;22.40;;;;;;;3.47;92.82;98002.21;116482;1182;68405;-80
2021/10/18 04:16:12;;;;;;;45.30;18.40;;;;;;;3.62;93.68;98003.97;116383;1182;68617;-71
2021/10/18 04:18:42;;;;;;;278.40;27.40;;;;;;;3.61;93.73;98007.65;116370;1182;60397;-71
2021/10/18 04:21:11;;;;;;;193.70;24.60;;;;;;;3.58;93.81;98008.77;116332;1182;60362;-79
2021/10/18 04:23:40;;;;;;;75.00;21.60;;;;;;;3.57;93.62;98007.59;116462;1182;72174;-70
2021/10/18 04:26:10;;;;;;;115.60;21.10;;;;;;;3.56;93.40;98007.35;116242;1184;67428;-70
2021/10/18 04:28:39;;;;;;;52.80;22.70;;;;;;;3.56;93.25;98006.19;116503;1182;68453;-70
2021/10/18 04:31:08;;;;;;;197.90;22.80;;;;;;;3.57;92.97;98009.79;116532;1181;60308;-80
2021/10/18 04:33:38;;;;;;;38.70;22.90;;;;;;;3.55;92.74;98008.29;116233;1183;59308;-70
2021/10/18 04:36:08;;;;;;;46.00;20.70;;;;;;;3.57;92.70;98009.95;116502;1182;72382;-72
2021/10/18 04:38:37;;;;;;;30.20;13.90;;;;;;;3.56;92.46;98005.55;116494;1182;67634;-79
2021/10/18 04:41:06;;;;;;;59.30;17.20;;;;;;;3.56;92.81;98007.59;116510;1181;69165;-69
2021/10/18 04:43:35;;;;;;;52.40;18.40;;;;;;;3.55;92.59;98009.61;116454;1181;60831;-70
2021/10/18 04:46:04;;;;;;;59.10;20.50;;;;;;;3.50;92.47;98010.14;116355;1182;60399;-69
2021/10/18 04:48:35;;;;;;;29.70;13.90;;;;;;;3.48;91.78;98009.73;116501;1181;71255;-79
2021/10/18 04:51:05;;;;;;;79.60;14.80;;;;;;;3.38;91.79;98010.73;116556;1182;67920;-71
2021/10/18 04:53:35;;;;;;;73.60;14.70;;;;;;;3.37;91.81;98009.01;116460;1182;68972;-73
2021/10/18 04:56:04;;;;;;;83.30;13.60;;;;;;;3.35;91.75;98012.82;116525;1181;60325;-79
2021/10/18 04:58:33;;;;;;;41.00;14.80;;;;;;;3.31;91.63;98018.20;116430;1182;60366;-77
2021/10/18 05:01:02;;;;;;;79.20;14.30;;;;;;;3.31;91.60;98020.08;116506;1181;71995;-71
2021/10/18 05:03:32;;;;;;;89.30;13.00;;;;;;;3.26;91.56;98017.93;116462;1182;67440;-70
2021/10/18 05:06:02;;;;;;;35.90;11.40;;;;;;;3.25;91.38;98024.10;116491;1182;68552;-76
2021/10/18 05:08:31;;;;;;;86.30;13.20;;;;;;;3.25;91.44;98026.67;116507;1173;60362;-77
2021/10/18 05:11:00;;;;;;;54.10;14.50;;;;;;;3.26;91.45;98030.60;116500;1182;60307;-70
2021/10/18 05:13:30;;;;;;;64.50;13.70;;;;;;;3.29;91.32;98035.23;116511;1182;72191;-87
2021/10/18 05:15:59;;;;;;;77.90;13.20;;;;;;;3.32;91.18;98041.59;116443;1182;68426;-76
2021/10/18 05:18:28;;;;;;;30.30;10.60;;;;;;;3.31;91.58;98046.51;116542;1182;68521;-73
2021/10/18 05:20:57;;;;;;;52.80;11.70;;;;;;;3.31;91.40;98048.55;116467;1182;60377;-74
2021/10/18 05:23:26;;;;;;;22.30;10.70;;;;;;;3.36;91.78;98053.83;116531;1182;60896;-84
2021/10/18 05:25:55;;;;;;;47.80;12.30;;;;;;;3.37;91.57;98052.89;116475;1182;71235;-77
2021/10/18 05:28:24;;;;;;;42.50;12.90;;;;;;;3.43;91.29;98055.45;116536;1182;67692;-86
2021/10/18 05:30:53;;;;;;;50.50;15.30;;;;;;;3.49;91.54;98053.63;116290;1183;68684;-71
2021/10/18 05:33:21;;;;;;;64.80;16.80;;;;;;;3.55;91.85;98059.77;116420;1182;60397;-69
2021/10/18 05:35:51;;;;;;;81.40;17.10;;;;;;;3.60;91.77;98058.98;116494;1182;60348;-87
2021/10/18 05:38:21;;;;;;;78.60;19.20;;;;;;;3.66;91.55;98061.27;116461;1182;71386;-73
2021/10/18 05:40:55;;;;;;;52.10;19.30;;;;;;;3.71;91.36;98067.81;116444;1182;67657;-88
2021/10/18 05:43:26;;;;;;;109.40;23.40;;;;;;;3.74;91.25;98066.10;116214;1182;69663;-70
2021/10/18 05:45:57;;;;;;;280.70;23.90;;;;;;;3.80;91.63;98068.52;116360;1181;60346;-70
2021/10/18 05:48:27;;;;;;;307.30;24.90;;;;;;;3.81;90.79;98071.66;116286;1183;60355;-74
2021/10/18 05:50:56;;;;;;;105.90;25.20;;;;;;;3.82;90.80;98069.86;116477;1181;72003;-77
2021/10/18 05:53:29;;;;;;;115.70;28.70;;;;;;;3.84;90.53;98074.65;116457;1182;66785;-73
2021/10/18 05:55:59;;;;;;;124.80;31.30;;;;;;;3.87;90.71;98075.23;116444;1182;68515;-74
2021/10/18 05:58:27;;;;;;;65.20;20.20;;;;;;;3.91;91.03;98080.80;116425;1182;60360;-80
2021/10/18 06:00:56;;;;;;;154.40;30.70;;;;;;;3.96;91.04;98084.29;116427;1181;60353;-71
2021/10/18 06:03:26;;;;;;;184.50;29.90;;;;;;;4.02;90.61;98087.94;116450;1182;72357;-79
2021/10/18 06:05:54;;;;;;;40.80;21.00;;;;;;;4.07;90.15;98091.02;116437;1182;66958;-78
2021/10/18 06:08:42;;;;;;;147.50;30.50;;;;;;;4.19;90.17;98091.49;116441;1182;69295;-78
2021/10/18 06:11:11;;;;;;;190.20;25.10;;;;;;;4.33;90.38;98101.21;116433;1181;60369;-70
2021/10/18 06:13:44;;;;;;;97.40;23.30;;;;;;;4.48;90.52;98107.95;116208;1182;60369;-72
2021/10/18 06:16:15;;;;;;;74.90;22.80;;;;;;;4.67;89.95;98112.36;116323;1182;72031;-71
2021/10/18 06:18:45;;;;;;;185.10;25.70;;;;;;;4.88;89.73;98114.82;116379;1182;68430;-79
2021/10/18 06:21:15;;;;;;;79.70;23.40;;;;;;;4.93;88.87;98117.42;116478;1182;69125;-84
2021/10/18 06:23:44;;;;;;;114.50;28.70;;;;;;;5.02;88.59;98116.83;116439;1182;60379;-83
2021/10/18 06:26:13;;;;;;;116.20;27.80;;;;;;;5.10;88.23;98116.70;116478;1182;60318;-73
2021/10/18 06:28:42;;;;;;;160.80;32.60;;;;;;;5.08;87.70;98117.64;116456;1182;72158;-76
2021/10/18 06:31:11;;;;;;;147.80;32.60;;;;;;;5.06;87.63;98117.95;116426;1182;67651;-79
2021/10/18 06:33:40;;;;;;;55.30;24.60;;;;;;;5.08;87.65;98118.65;116387;1182;69042;-77
2021/10/18 06:36:09;;;;;;;137.10;30.90;;;;;;;5.13;87.87;98124.39;116438;1182;60363;-74
2021/10/18 06:42:26;;;;;;;45.80;23.90;;;;;;;5.28;87.43;98127.34;116397;1182;71539;-75
2021/10/18 06:44:55;;;;;;;113.00;26.50;;;;;;;5.41;87.65;98126.83;116416;1182;67682;-82
2021/10/18 06:47:24;;;;;;;52.50;20.10;;;;;;;5.61;87.20;98131.48;116265;1181;68414;-73
2021/10/18 06:49:56;;;;;;;25.20;16.90;;;;;;;5.80;87.03;98135.29;116262;1181;60801;-74
2021/10/18 06:52:30;;;;;;;24.30;16.30;;;;;;;5.83;85.69;98137.88;116407;1182;60394;-73
2021/10/18 06:55:00;;;;;;;25.20;15.70;;;;;;;5.98;86.34;98134.53;116491;1182;71496;-84
2021/10/18 06:57:29;;;;;;;28.10;16.80;;;;;;;6.06;85.14;98137.91;116451;1182;67686;-83
2021/10/18 06:59:58;;;;;;;21.50;14.20;;;;;;;6.15;85.25;98141.45;116248;1183;68402;-88
2021/10/18 07:02:27;;;;;;;23.40;15.50;;;;;;;6.26;85.25;98143.00;116405;1182;60323;-82
2021/10/18 07:04:57;;;;;;;20.00;14.60;;;;;;;6.34;85.06;98147.64;116352;1173;60417;-84
2021/10/18 07:07:27;;;;;;;23.10;14.20;;;;;;;6.38;84.85;98145.44;116303;1182;71706;-82
2021/10/18 07:10:00;;;;;;;17.10;10.00;;;;;;;6.42;85.00;98146.98;116361;1182;67657;-76
2021/10/18 07:12:34;;;;;;;17.70;11.60;;;;;;;6.40;84.00;98144.24;116309;1182;69377;-82
2021/10/18 07:15:05;;;;;;;13.30;10.60;;;;;;;6.40;83.49;98144.95;116420;1182;60361;-84
2021/10/18 07:17:36;;;;;;;13.90;11.00;;;;;;;6.47;84.01;98150.45;116130;1184;60353;-87
2021/10/18 07:20:08;;;;;;;12.70;10.60;;;;;;;6.55;84.06;98152.63;116469;1182;71426;-88
2021/10/18 07:22:44;;;;;;;17.80;12.10;;;;;;;6.62;83.50;98147.98;116504;1182;68295;-86
2021/10/18 07:25:15;;;;;;;18.20;11.40;;;;;;;6.78;83.66;98148.96;116563;1181;69317;-81
2021/10/18 07:27:45;;;;;;;13.10;10.60;;;;;;;6.81;82.80;98152.73;116430;1184;60436;-82
2021/10/18 07:30:20;;;;;;;16.40;11.70;;;;;;;6.83;82.89;98155.88;116538;1183;60432;-81
2021/10/18 07:32:49;;;;;;;16.00;12.00;;;;;;;7.00;83.76;98156.69;116702;1182;71435;-79
2021/10/18 07:35:20;;;;;;;16.40;12.10;;;;;;;7.12;83.46;98161.35;116719;1184;68409;-87
2021/10/18 07:37:54;;;;;;;14.80;11.70;;;;;;;7.22;82.76;98161.31;116644;1182;69345;-82
2021/10/18 07:40:23;;;;;;;15.20;12.20;;;;;;;7.31;82.41;98164.20;116863;1182;60355;-80
2021/10/18 07:42:52;;;;;;;18.60;12.70;;;;;;;7.48;82.71;98169.38;116742;1182;60344;-84
2021/10/18 07:45:22;;;;;;;15.00;11.10;;;;;;;7.54;81.89;98168.73;116531;1183;72216;-74
2021/10/18 07:47:51;;;;;;;15.90;11.80;;;;;;;7.46;79.89;98172.54;116452;1182;68655;-87
2021/10/18 07:50:20;;;;;;;16.00;12.60;;;;;;;7.45;80.33;98173.40;116464;1183;69341;-76
2021/10/18 07:52:50;;;;;;;15.80;12.10;;;;;;;7.51;80.40;98170.38;116470;1182;60336;-84
2021/10/18 07:55:20;;;;;;;17.80;12.20;;;;;;;7.64;81.09;98171.19;116602;1182;60379;-72
2021/10/18 07:57:51;;;;;;;16.40;13.60;;;;;;;7.69;80.46;98168.79;116513;1182;71661;-71
2021/10/18 08:00:21;;;;;;;18.70;13.70;;;;;;;7.86;80.60;98169.70;116718;1182;67676;-73
2021/10/18 08:02:50;;;;;;;;;;;;;;;7.95;79.83;98168.86;116664;1182;69264;-82
2021/10/18 08:05:20;;;;;;;22.00;14.50;;;;;;;7.98;79.00;98168.59;116685;1182;60309;-80
2021/10/18 08:07:50;;;;;;;19.20;13.30;;;;;;;8.07;78.81;98171.68;116597;1183;60348;-84
2021/10/18 08:10:23;;;;;;;16.50;12.70;;;;;;;8.19;79.25;98171.73;116711;1182;71443;-88
2021/10/18 08:13:00;;;;;;;19.60;13.20;;;;;;;8.32;78.41;98167.54;116690;1181;67477;-80
2021/10/18 08:15:34;;;;;;;16.00;12.70;;;;;;;8.70;77.21;98170.21;116594;1183;69207;-73
2021/10/18 08:18:04;;;;;;;19.70;13.70;;;;;;;9.05;76.08;98172.52;116626;1182;60306;-72
2021/10/18 08:20:33;;;;;;;17.60;13.50;;;;;;;9.13;74.53;98173.60;116564;1182;60756;-82
2021/10/18 08:23:01;;;;;;;16.20;12.60;;;;;;;9.29;74.74;98170.50;116679;1182;71367;-73
2021/10/18 08:25:30;;;;;;;19.20;13.40;;;;;;;9.51;73.57;98173.70;116524;1182;68274;-71
2021/10/18 08:27:59;;;;;;;18.60;13.50;;;;;;;9.83;72.36;98174.43;116614;1182;69243;-70
2021/10/18 08:30:28;;;;;;;19.20;14.00;;;;;;;10.15;71.59;98175.94;116726;1182;60328;-73
2021/10/18 08:32:57;;;;;;;16.40;13.10;;;;;;;10.49;72.03;98173.73;116433;1182;60431;-70
2021/10/18 08:35:26;;;;;;;16.50;12.90;;;;;;;10.80;71.82;98175.48;116385;1183;72291;-73
2021/10/18 08:41:08;;;;;;;18.00;13.00;;;;;;;10.95;69.28;98171.33;116414;1182;68567;-71
2021/10/18 08:46:07;;;;;;;21.00;12.60;;;;;;;11.35;66.21;98176.33;116556;1182;60315;-74
2021/10/18 08:48:56;;;;;;;14.60;12.10;;;;;;;11.51;65.53;98175.74;116516;1181;72148;-73
2021/10/18 08:51:25;;;;;;;16.90;12.60;;;;;;;11.88;65.88;98175.45;116586;1182;67789;-71
2021/10/18 08:53:55;;;;;;;19.30;12.50;;;;;;;11.95;64.55;98172.99;116492;1182;68488;-69
2021/10/18 08:56:33;;;;;;;16.70;12.00;;;;;;;11.73;64.31;98176.05;116726;1182;60326;-85
2021/10/18 08:59:03;;;;;;;19.90;11.80;;;;;;;11.85;64.84;98176.77;116747;1182;60362;-79
2021/10/18 09:01:42;;;;;;;;;;;;;;;11.73;62.98;98176.85;116850;1182;72230;-79
2021/10/18 09:04:30;;;;;;;17.00;12.40;;;;;;;11.51;63.54;98174.73;116885;1182;68537;-76
2021/10/18 09:07:02;;;;;;;14.70;11.20;;;;;;;11.65;63.52;98169.81;116851;1182;69264;-81
2021/10/18 09:09:46;;;;;;;16.10;12.20;;;;;;;11.70;63.16;98169.31;116876;1182;60377;-88
2021/10/18 09:12:29;;;;;;;15.20;11.40;;;;;;;12.11;63.36;98166.59;116760;1182;60300;-80
2021/10/18 09:15:21;;;;;;;16.90;11.90;;;;;;;12.03;62.46;98169.38;116522;1183;72226;-70
2021/10/18 09:17:55;;;;;;;20.50;12.50;;;;;;;12.17;61.54;98166.44;116668;1176;68905;-72
2021/10/18 09:20:33;;;;;;;16.00;11.50;;;;;;;12.66;61.58;98169.66;116493;1182;69316;-79
2021/10/18 09:23:46;;;;;;;17.20;12.10;;;;;;;12.91;60.27;98170.98;116487;1174;60274;-75
2021/10/18 09:26:16;;;;;;;17.60;11.60;;;;;;;14.11;58.44;98172.89;116840;1182;60351;-76
2021/10/18 09:28:45;;;;;;;15.00;11.80;;;;;;;14.56;55.57;98173.05;116637;1182;72177;-84
2021/10/18 09:31:18;;;;;;;16.10;11.60;;;;;;;14.61;54.07;98171.37;116601;1183;67692;-80
2021/10/18 09:33:55;;;;;;;16.40;11.60;;;;;;;14.80;53.96;98170.65;116399;1184;68494;-82
2021/10/18 09:36:33;;;;;;;17.50;11.30;;;;;;;15.37;53.53;98169.19;116689;1183;60412;-83
2021/10/18 09:39:13;;;;;;;15.80;11.30;;;;;;;15.08;51.45;98171.26;116614;1181;60356;-80
2021/10/18 09:42:04;;;;;;;17.20;11.40;;;;;;;15.89;50.76;98163.52;116569;1182;71369;-77
2021/10/18 10:53:23;;;;;;;12.10;7.70;;;;;;;18.25;39.35;98124.89;116455;1182;71284;-75
2021/10/18 10:55:54;;;;;;;13.10;7.90;;;;;;;17.80;41.16;98124.16;116456;1181;68409;-70
2021/10/18 10:58:51;;;;;;;11.40;6.80;;;;;;;17.74;40.39;98122.20;116474;1184;69302;-84
2021/10/18 11:01:52;;;;;;;9.60;6.90;;;;;;;18.37;37.47;98120.38;116197;1184;60296;-83
2021/10/18 11:04:34;;;;;;;11.40;7.00;;;;;;;17.71;37.33;98114.39;116374;1182;60395;-83
2021/10/18 11:07:06;;;;;;;67.00;56.90;;;;;;;18.22;35.94;98117.45;116482;1182;72297;-84
2021/10/18 11:09:43;;;;;;;12.30;8.60;;;;;;;17.62;36.76;98109.62;116452;1182;67539;-87
2021/10/18 11:12:33;;;;;;;10.80;6.80;;;;;;;17.17;36.02;98108.62;116470;1182;69287;-71
2021/10/18 11:15:16;;;;;;;9.50;6.20;;;;;;;17.20;36.73;98100.17;116381;1184;60353;-86
2021/10/18 11:17:48;;;;;;;34.00;23.00;;;;;;;17.12;36.37;98102.71;116426;1182;60351;-79
2021/10/18 11:20:19;;;;;;;12.10;7.40;;;;;;;16.93;36.65;98101.06;116432;1181;72406;-82
2021/10/18 11:22:55;;;;;;;10.40;6.60;;;;;;;16.41;38.51;98097.29;116520;1182;68419;-79
2021/10/18 11:25:29;;;;;;;13.00;6.70;;;;;;;16.24;39.32;98098.09;116375;1182;68304;-77
2021/10/18 11:28:01;;;;;;;10.10;6.90;;;;;;;16.12;40.18;98100.17;116465;1182;60344;-82
2021/10/18 11:30:32;;;;;;;13.60;7.80;;;;;;;15.95;40.80;98098.64;116435;1182;60376;-73
2021/10/18 11:33:16;;;;;;;15.20;8.20;;;;;;;15.88;41.56;98097.49;116390;1182;72229;-79
2021/10/18 11:35:45;;;;;;;16.10;7.40;;;;;;;15.54;42.25;98099.92;116218;1183;67640;-82
2021/10/18 11:38:16;;;;;;;12.10;7.60;;;;;;;15.37;42.50;98098.77;116334;1182;69179;-82
2021/10/18 11:40:48;;;;;;;17.20;8.50;;;;;;;15.20;43.00;98091.95;116193;1184;60370;-80
2021/10/18 11:43:21;;;;;;;11.20;7.80;;;;;;;14.97;43.97;98092.41;116344;1182;60420;-82
2021/10/18 11:45:53;;;;;;;10.80;6.70;;;;;;;14.84;43.95;98092.61;116524;1184;70384;-81
2021/10/18 11:48:25;;;;;;;11.60;7.90;;;;;;;14.52;45.26;98090.26;116350;1182;67797;-72
2021/10/18 11:51:02;;;;;;;10.00;6.60;;;;;;;14.44;45.05;98089.79;116502;1184;68573;-84
2021/10/18 11:53:40;;;;;;;11.60;7.50;;;;;;;14.34;44.72;98087.58;116509;1182;60309;-75
2021/10/18 11:56:18;;;;;;;11.70;7.70;;;;;;;14.16;45.24;98083.46;116558;1182;60399;-77
2021/10/18 11:58:49;;;;;;;12.30;7.70;;;;;;;14.03;45.71;98081.13;116576;1180;72167;-77
2021/10/18 12:01:18;;;;;;;12.60;7.80;;;;;;;13.88;46.01;98078.27;116526;1183;67623;-86
2021/10/18 12:03:48;;;;;;;13.30;8.10;;;;;;;13.66;47.79;98082.23;116374;1183;69232;-80
2021/10/18 12:06:17;;;;;;;13.40;8.10;;;;;;;13.47;48.99;98077.41;116260;1184;60361;-87
2021/10/18 12:08:52;;;;;;;11.90;8.40;;;;;;;13.39;49.03;98075.02;116509;1182;60739;-78
2021/10/18 12:11:26;;;;;;;12.90;8.40;;;;;;;13.34;48.68;98074.55;116573;1182;72884;-78
2021/10/18 12:13:55;;;;;;;11.50;8.00;;;;;;;13.18;49.01;98070.33;116623;1182;68451;-81
2021/10/18 12:16:25;;;;;;;12.90;8.40;;;;;;;13.21;50.63;98070.47;116617;1182;68487;-77
2021/10/18 12:19:01;;;;;;;14.70;9.10;;;;;;;13.41;50.20;98070.59;116579;1182;60782;-71
2021/10/18 12:21:35;;;;;;;14.70;8.60;;;;;;;14.12;48.56;98069.59;116691;1184;59622;-77
2021/10/18 12:24:14;;;;;;;11.40;7.60;;;;;;;15.40;46.41;98067.59;116502;1182;71115;-80
2021/10/18 12:26:49;;;;;;;12.80;8.70;;;;;;;16.68;43.68;98061.09;116477;1183;66764;-78
2021/10/18 12:29:20;;;;;;;13.20;8.10;;;;;;;17.60;41.43;98063.00;116561;1182;68475;-76
2021/10/18 12:31:52;;;;;;;10.50;7.60;;;;;;;18.32;39.47;98062.00;116452;1183;60393;-80
2021/10/18 12:34:30;;;;;;;14.60;8.00;;;;;;;18.77;38.24;98062.94;116483;1182;60376;-77
2021/10/18 12:37:00;;;;;;;10.90;7.80;;;;;;;18.80;37.55;98061.16;116471;1182;72437;-77
2021/10/18 12:39:39;;;;;;;11.30;8.20;;;;;;;18.81;36.27;98059.90;116462;1183;68629;-76
2021/10/18 12:42:21;;;;;;;13.30;7.60;;;;;;;18.71;36.54;98057.20;116403;1182;68555;-77
2021/10/18 12:45:15;;;;;;;13.40;8.20;;;;;;;19.00;36.29;98049.34;116289;1182;60280;-82
2021/10/18 12:47:50;;;;;;;12.50;7.70;;;;;;;19.65;35.70;98048.74;116350;1184;60347;-90
2021/10/18 12:50:22;;;;;;;14.50;7.90;;;;;;;19.64;35.86;98049.48;116490;1182;72820;-82
2021/10/18 12:52:54;;;;;;;12.90;8.20;;;;;;;19.67;35.32;98051.68;116524;1182;68739;-82
2021/10/18 12:55:34;;;;;;;9.80;7.40;;;;;;;18.92;35.10;98056.38;116456;1182;69142;-72